• Join FlightAware (Why Join?)
  • Login
  • US Flag 
Gobble Gobble! 
06:16AM EST


 

Airport Tracker/Info


-or-


 

Live Flight TrackerFlight Track Log ✈ LOF3376 ✈ 03-May-2013 ✈ KORD - KCVG

Flight Track Log - Related Links

Times and Time Zones

All times are in EDT time to prevent confusion due to time zone crossing. See the LOF3376 flight status page for this flight to view local times or setup timezone preferences in your user account.

Time Position Orientation Groundspeed Altitude Reporting Facility
EDT Latitude Longitude Course Direction KTS MPH feet Rate Location/Type
09:07AM 42.0167 -87.8667 139° Southeast 176 203 2,600  Level Chicago TRACON
09:08AM 42.0167 -87.8000 90° East 239 275 4,500 1,500 Climbing Chicago TRACON
09:10AM 41.6322 -87.4999 156° South  Level Estimated
09:10AM 41.8794 -87.7881 176° South 246 283 7,300  Level Chicago Center
09:11AM 41.5446 -87.3989 159° South  Level Estimated
09:11AM 41.8164 -87.8264 204° Southwest 256 295 10,100  Level Chicago Center
09:12AM 41.4728 -87.3165 139° Southeast  Level Estimated
09:12AM 41.7486 -87.7875 157° South 265 305 12,500  Level Chicago Center
09:13AM 41.6806 -87.7433 154° Southeast 270 311 15,100 2,220 Climbing Chicago Center
09:14AM 41.6122 -87.6972 153° Southeast 273 314 17,100 1,740 Climbing Chicago Center
09:15AM 41.5389 -87.6486 154° Southeast 288 331 18,800 1,860 Climbing Chicago Center
09:16AM 41.4739 -87.5764 140° Southeast 300 345 21,000 1,860 Climbing Chicago Center
09:17AM 41.3819 -87.5133 153° Southeast 318 366 22,700 960 Climbing Chicago Center
09:18AM 41.2939 -87.4664 158° South 334 384 23,000 120 Climbing Chicago Center
09:19AM 41.1892 -87.4092 158° South 398 458 23,000  Level Chicago Center
09:20AM 41.0831 -87.3511 158° South 411 473 23,000  Level Chicago Center
09:21AM 40.9742 -87.2939 158° South 419 482 23,000  Level Chicago Center
09:22AM 40.8686 -87.2369 158° South 413 475 23,000 240 Level Chicago Center
09:23AM 40.7622 -87.1806 158° South 412 474 23,500 960 Climbing Chicago Center
09:24AM 40.6381 -87.1147 158° South 403 464 25,000 720 Climbing Chicago Center
09:25AM 40.5406 -87.0561 155° Southeast 406 467 25,000  Level Chicago Center
09:26AM 40.4447 -86.9617 143° Southeast 429 494 25,000  Level Chicago Center
09:27AM 40.3456 -86.8692 145° Southeast 437 503 25,000 -180 Level Chicago Center
09:28AM 40.2467 -86.7744 144° Southeast 442 509 24,700 -1,260 Descending Chicago Center
09:29AM 40.1378 -86.6728 144° Southeast 401 461 22,400 -1,980 Descending Chicago Center
09:30AM 40.0861 -86.6233 144° Southeast 383 441 21,200 -1,620 Descending Indianapolis Center
09:31AM 39.9908 -86.5328 144° Southeast 358 412 19,600 -1,320 Descending Indianapolis Center
09:32AM 39.9061 -86.4536 144° Southeast 373 429 18,500 -960 Descending Indianapolis Center
09:33AM 39.8167 -86.3667 143° Southeast 384 442 17,700 -960 Descending Indianapolis TRACON
09:34AM 39.7833 -86.2500 110° East 390 449 16,700 -1,020 Descending Indianapolis TRACON
09:35AM 39.7333 -86.1167 116° Southeast 387 445 15,700 -1,020 Descending Indianapolis TRACON
09:36AM 39.7000 -86.0000 110° East 358 412 14,700 -900 Descending Indianapolis TRACON
09:37AM 39.6500 -85.8833 119° Southeast 353 406 14,000 -720 Descending Indianapolis TRACON
09:38AM 39.6167 -85.7667 110° East 357 411 13,300 -1,260 Descending Indianapolis TRACON
09:39AM 39.5731 -85.6481 115° Southeast 334 384 11,300 -1,080 Descending Indianapolis Center
09:40AM 39.5281 -85.5175 114° Southeast 330 380 11,000 -180 Descending Indianapolis Center
09:41AM 39.4822 -85.4158 120° Southeast 330 380 11,000  Level Indianapolis Center
09:42AM 39.4511 -85.2981 109° East 344 396 11,000 -300 Level Indianapolis Center
09:43AM 39.4208 -85.1914 110° East 318 366 10,500 -1,020 Descending Indianapolis Center
09:44AM 39.3936 -85.0983 111° Southeast 284 327 8,900 -1,560 Descending Indianapolis Center
09:45AM 39.3692 -85.0133 110° East 257 296 7,300 -1,800 Descending Indianapolis Center
09:46AM 39.3411 -84.9128 110° East 249 287 5,300 -1,320 Descending Indianapolis Center
09:47AM 39.3167 -84.8667 124° Southeast 255 293 5,100 -360 Descending Cincinnati TRACON
09:48AM 39.2833 -84.7833 117° Southeast 249 287 4,800 -900 Descending Cincinnati TRACON
09:49AM 39.2500 -84.7167 123° Southeast 231 266 3,400 -1,200 Descending Cincinnati TRACON
09:50AM 39.2000 -84.6833 153° Southeast 191 220 2,500 -900 Descending Cincinnati TRACON